sensor_id;sensor_type;location;lat;lon;timestamp;P1;durP1;ratioP1;P2;durP2;ratioP2
41436;SDS011;27178;49.460;10.850;2023-06-14T00:00:04;4.10;;;3.70;;
41436;SDS011;27178;49.460;10.850;2023-06-14T00:02:35;3.58;;;3.28;;
41436;SDS011;27178;49.460;10.850;2023-06-14T00:05:04;5.88;;;3.83;;
41436;SDS011;27178;49.460;10.850;2023-06-14T00:07:33;4.28;;;3.50;;
41436;SDS011;27178;49.460;10.850;2023-06-14T00:10:02;4.97;;;3.72;;
41436;SDS011;27178;49.460;10.850;2023-06-14T00:12:32;4.25;;;3.58;;
41436;SDS011;27178;49.460;10.850;2023-06-14T00:15:00;3.60;;;3.30;;
41436;SDS011;27178;49.460;10.850;2023-06-14T00:17:29;3.40;;;3.10;;
41436;SDS011;27178;49.460;10.850;2023-06-14T00:19:59;4.32;;;2.95;;
41436;SDS011;27178;49.460;10.850;2023-06-14T00:22:32;3.53;;;3.30;;
41436;SDS011;27178;49.460;10.850;2023-06-14T00:25:00;4.40;;;3.60;;
41436;SDS011;27178;49.460;10.850;2023-06-14T00:27:48;3.50;;;3.08;;
41436;SDS011;27178;49.460;10.850;2023-06-14T00:30:17;3.78;;;3.38;;
41436;SDS011;27178;49.460;10.850;2023-06-14T00:32:47;3.97;;;3.50;;
41436;SDS011;27178;49.460;10.850;2023-06-14T00:35:16;4.55;;;3.38;;
41436;SDS011;27178;49.460;10.850;2023-06-14T00:37:45;3.33;;;2.83;;
41436;SDS011;27178;49.460;10.850;2023-06-14T00:40:14;3.88;;;3.10;;
41436;SDS011;27178;49.460;10.850;2023-06-14T00:42:42;3.42;;;3.13;;
41436;SDS011;27178;49.460;10.850;2023-06-14T00:45:11;5.95;;;3.58;;
41436;SDS011;27178;49.460;10.850;2023-06-14T00:47:40;3.67;;;3.30;;
41436;SDS011;27178;49.460;10.850;2023-06-14T00:50:10;3.65;;;3.33;;
41436;SDS011;27178;49.460;10.850;2023-06-14T00:52:41;4.90;;;3.33;;
41436;SDS011;27178;49.460;10.850;2023-06-14T00:55:09;3.58;;;3.28;;
41436;SDS011;27178;49.460;10.850;2023-06-14T00:57:37;5.75;;;3.40;;
41436;SDS011;27178;49.460;10.850;2023-06-14T01:00:06;4.53;;;3.42;;
41436;SDS011;27178;49.460;10.850;2023-06-14T01:02:36;4.30;;;3.70;;
41436;SDS011;27178;49.460;10.850;2023-06-14T01:05:06;5.82;;;3.05;;
41436;SDS011;27178;49.460;10.850;2023-06-14T01:07:41;5.10;;;4.03;;
41436;SDS011;27178;49.460;10.850;2023-06-14T01:10:21;3.78;;;3.47;;
41436;SDS011;27178;49.460;10.850;2023-06-14T01:13:02;6.15;;;3.72;;
41436;SDS011;27178;49.460;10.850;2023-06-14T01:15:36;4.07;;;3.70;;
41436;SDS011;27178;49.460;10.850;2023-06-14T01:18:06;3.50;;;3.20;;
41436;SDS011;27178;49.460;10.850;2023-06-14T01:20:44;4.60;;;3.40;;
41436;SDS011;27178;49.460;10.850;2023-06-14T01:23:19;3.53;;;3.22;;
41436;SDS011;27178;49.460;10.850;2023-06-14T01:25:48;4.97;;;3.45;;
41436;SDS011;27178;49.460;10.850;2023-06-14T01:28:20;3.65;;;3.35;;
41436;SDS011;27178;49.460;10.850;2023-06-14T01:30:50;3.80;;;3.50;;
41436;SDS011;27178;49.460;10.850;2023-06-14T01:33:22;3.47;;;3.17;;
41436;SDS011;27178;49.460;10.850;2023-06-14T01:35:53;4.03;;;3.60;;
41436;SDS011;27178;49.460;10.850;2023-06-14T01:38:26;3.70;;;3.22;;
41436;SDS011;27178;49.460;10.850;2023-06-14T01:40:55;3.72;;;3.42;;
41436;SDS011;27178;49.460;10.850;2023-06-14T01:43:26;4.05;;;3.28;;
41436;SDS011;27178;49.460;10.850;2023-06-14T01:45:57;6.55;;;3.17;;
41436;SDS011;27178;49.460;10.850;2023-06-14T01:48:27;3.83;;;3.47;;
41436;SDS011;27178;49.460;10.850;2023-06-14T01:50:55;3.63;;;3.22;;
41436;SDS011;27178;49.460;10.850;2023-06-14T01:53:23;3.35;;;3.05;;
41436;SDS011;27178;49.460;10.850;2023-06-14T01:55:53;3.80;;;3.50;;
41436;SDS011;27178;49.460;10.850;2023-06-14T01:58:21;4.13;;;3.50;;
41436;SDS011;27178;49.460;10.850;2023-06-14T02:00:50;7.40;;;3.40;;
41436;SDS011;27178;49.460;10.850;2023-06-14T02:03:22;3.63;;;3.33;;
41436;SDS011;27178;49.460;10.850;2023-06-14T02:05:51;5.95;;;3.55;;
41436;SDS011;27178;49.460;10.850;2023-06-14T02:08:21;3.88;;;3.45;;
41436;SDS011;27178;49.460;10.850;2023-06-14T02:10:51;4.50;;;4.10;;
41436;SDS011;27178;49.460;10.850;2023-06-14T02:13:20;3.90;;;3.33;;
41436;SDS011;27178;49.460;10.850;2023-06-14T02:15:48;4.35;;;3.53;;
41436;SDS011;27178;49.460;10.850;2023-06-14T02:18:21;6.75;;;3.92;;
41436;SDS011;27178;49.460;10.850;2023-06-14T02:20:50;5.22;;;3.83;;
41436;SDS011;27178;49.460;10.850;2023-06-14T02:23:19;4.20;;;3.80;;
41436;SDS011;27178;49.460;10.850;2023-06-14T02:25:47;3.60;;;3.30;;
41436;SDS011;27178;49.460;10.850;2023-06-14T02:28:16;3.65;;;3.17;;
41436;SDS011;27178;49.460;10.850;2023-06-14T02:30:45;4.63;;;3.42;;
41436;SDS011;27178;49.460;10.850;2023-06-14T02:33:13;4.20;;;3.83;;
41436;SDS011;27178;49.460;10.850;2023-06-14T02:35:42;4.25;;;3.50;;
41436;SDS011;27178;49.460;10.850;2023-06-14T02:38:10;3.72;;;3.42;;
41436;SDS011;27178;49.460;10.850;2023-06-14T02:40:39;4.00;;;3.60;;
41436;SDS011;27178;49.460;10.850;2023-06-14T02:43:08;4.50;;;4.10;;
41436;SDS011;27178;49.460;10.850;2023-06-14T02:45:38;5.30;;;3.38;;
41436;SDS011;27178;49.460;10.850;2023-06-14T02:48:06;3.95;;;3.65;;
41436;SDS011;27178;49.460;10.850;2023-06-14T02:50:35;5.35;;;4.00;;
41436;SDS011;27178;49.460;10.850;2023-06-14T02:53:03;4.07;;;3.50;;
41436;SDS011;27178;49.460;10.850;2023-06-14T02:55:34;3.80;;;3.50;;
41436;SDS011;27178;49.460;10.850;2023-06-14T02:58:06;10.77;;;3.60;;
41436;SDS011;27178;49.460;10.850;2023-06-14T03:00:35;6.13;;;3.80;;
41436;SDS011;27178;49.460;10.850;2023-06-14T03:03:06;3.85;;;3.55;;
41436;SDS011;27178;49.460;10.850;2023-06-14T03:05:41;3.90;;;3.60;;
41436;SDS011;27178;49.460;10.850;2023-06-14T03:08:12;4.30;;;3.90;;
41436;SDS011;27178;49.460;10.850;2023-06-14T03:10:43;4.18;;;3.83;;
41436;SDS011;27178;49.460;10.850;2023-06-14T03:13:12;3.75;;;3.45;;
41436;SDS011;27178;49.460;10.850;2023-06-14T03:15:40;3.70;;;3.40;;
41436;SDS011;27178;49.460;10.850;2023-06-14T03:18:12;3.78;;;3.45;;
41436;SDS011;27178;49.460;10.850;2023-06-14T03:20:41;3.80;;;3.50;;
41436;SDS011;27178;49.460;10.850;2023-06-14T03:23:12;9.82;;;3.60;;
41436;SDS011;27178;49.460;10.850;2023-06-14T03:25:40;4.35;;;3.65;;
41436;SDS011;27178;49.460;10.850;2023-06-14T03:28:08;3.72;;;3.33;;
41436;SDS011;27178;49.460;10.850;2023-06-14T03:30:37;3.85;;;3.55;;
41436;SDS011;27178;49.460;10.850;2023-06-14T03:33:05;5.20;;;3.65;;
41436;SDS011;27178;49.460;10.850;2023-06-14T03:35:36;3.60;;;3.17;;
41436;SDS011;27178;49.460;10.850;2023-06-14T03:38:05;4.35;;;3.60;;
41436;SDS011;27178;49.460;10.850;2023-06-14T03:40:34;3.85;;;3.50;;
41436;SDS011;27178;49.460;10.850;2023-06-14T03:43:02;3.78;;;3.47;;
41436;SDS011;27178;49.460;10.850;2023-06-14T03:45:30;4.38;;;3.95;;
41436;SDS011;27178;49.460;10.850;2023-06-14T03:47:59;3.97;;;3.60;;
41436;SDS011;27178;49.460;10.850;2023-06-14T03:50:27;3.40;;;3.10;;
41436;SDS011;27178;49.460;10.850;2023-06-14T03:52:58;4.20;;;3.40;;
41436;SDS011;27178;49.460;10.850;2023-06-14T03:55:27;3.80;;;3.25;;
41436;SDS011;27178;49.460;10.850;2023-06-14T03:58:00;3.72;;;3.40;;
41436;SDS011;27178;49.460;10.850;2023-06-14T04:00:29;4.10;;;3.53;;
41436;SDS011;27178;49.460;10.850;2023-06-14T04:02:58;3.70;;;3.40;;
41436;SDS011;27178;49.460;10.850;2023-06-14T04:05:27;5.95;;;3.58;;
41436;SDS011;27178;49.460;10.850;2023-06-14T04:07:55;3.97;;;3.63;;
41436;SDS011;27178;49.460;10.850;2023-06-14T04:10:27;4.03;;;3.22;;
41436;SDS011;27178;49.460;10.850;2023-06-14T04:12:55;8.45;;;3.40;;
41436;SDS011;27178;49.460;10.850;2023-06-14T04:15:23;5.30;;;3.67;;
41436;SDS011;27178;49.460;10.850;2023-06-14T04:17:54;3.90;;;3.60;;
41436;SDS011;27178;49.460;10.850;2023-06-14T04:20:23;5.38;;;3.53;;
41436;SDS011;27178;49.460;10.850;2023-06-14T04:22:52;3.83;;;3.53;;
41436;SDS011;27178;49.460;10.850;2023-06-14T04:25:25;3.83;;;3.42;;
41436;SDS011;27178;49.460;10.850;2023-06-14T04:27:57;5.00;;;3.88;;
41436;SDS011;27178;49.460;10.850;2023-06-14T04:30:25;4.72;;;4.32;;
41436;SDS011;27178;49.460;10.850;2023-06-14T04:32:57;4.10;;;3.67;;
41436;SDS011;27178;49.460;10.850;2023-06-14T04:35:27;5.40;;;4.22;;
41436;SDS011;27178;49.460;10.850;2023-06-14T04:37:55;3.90;;;3.42;;
41436;SDS011;27178;49.460;10.850;2023-06-14T04:40:25;4.13;;;3.75;;
41436;SDS011;27178;49.460;10.850;2023-06-14T04:42:54;3.67;;;3.38;;
41436;SDS011;27178;49.460;10.850;2023-06-14T04:45:24;4.65;;;3.70;;
41436;SDS011;27178;49.460;10.850;2023-06-14T04:47:58;3.95;;;3.65;;
41436;SDS011;27178;49.460;10.850;2023-06-14T04:50:27;3.88;;;3.58;;
41436;SDS011;27178;49.460;10.850;2023-06-14T04:52:56;8.23;;;3.47;;
41436;SDS011;27178;49.460;10.850;2023-06-14T04:55:27;4.97;;;3.47;;
41436;SDS011;27178;49.460;10.850;2023-06-14T04:57:56;3.72;;;3.35;;
41436;SDS011;27178;49.460;10.850;2023-06-14T05:00:25;5.20;;;3.53;;
41436;SDS011;27178;49.460;10.850;2023-06-14T05:02:53;3.70;;;3.40;;
41436;SDS011;27178;49.460;10.850;2023-06-14T05:05:22;3.42;;;3.15;;
41436;SDS011;27178;49.460;10.850;2023-06-14T05:07:50;3.95;;;3.60;;
41436;SDS011;27178;49.460;10.850;2023-06-14T05:10:19;5.43;;;3.13;;
41436;SDS011;27178;49.460;10.850;2023-06-14T05:12:49;5.25;;;3.28;;
41436;SDS011;27178;49.460;10.850;2023-06-14T05:15:19;4.93;;;3.80;;
41436;SDS011;27178;49.460;10.850;2023-06-14T05:17:51;3.80;;;3.50;;
41436;SDS011;27178;49.460;10.850;2023-06-14T05:20:22;3.67;;;3.33;;
41436;SDS011;27178;49.460;10.850;2023-06-14T05:22:53;3.55;;;3.25;;
41436;SDS011;27178;49.460;10.850;2023-06-14T05:25:23;3.42;;;3.08;;
41436;SDS011;27178;49.460;10.850;2023-06-14T05:27:53;3.75;;;3.20;;
41436;SDS011;27178;49.460;10.850;2023-06-14T05:30:21;3.83;;;2.85;;
41436;SDS011;27178;49.460;10.850;2023-06-14T05:32:50;4.75;;;3.00;;
41436;SDS011;27178;49.460;10.850;2023-06-14T05:35:19;3.22;;;3.03;;
41436;SDS011;27178;49.460;10.850;2023-06-14T05:37:49;4.13;;;3.30;;
41436;SDS011;27178;49.460;10.850;2023-06-14T05:40:18;3.50;;;3.20;;
41436;SDS011;27178;49.460;10.850;2023-06-14T05:42:46;3.60;;;2.72;;
41436;SDS011;27178;49.460;10.850;2023-06-14T05:45:16;8.18;;;3.17;;
41436;SDS011;27178;49.460;10.850;2023-06-14T05:47:44;4.60;;;3.15;;
41436;SDS011;27178;49.460;10.850;2023-06-14T05:50:12;3.25;;;2.95;;
41436;SDS011;27178;49.460;10.850;2023-06-14T05:52:41;3.80;;;3.28;;
41436;SDS011;27178;49.460;10.850;2023-06-14T05:55:10;3.30;;;3.00;;
41436;SDS011;27178;49.460;10.850;2023-06-14T05:57:40;3.83;;;3.53;;
41436;SDS011;27178;49.460;10.850;2023-06-14T06:00:09;3.10;;;2.85;;
41436;SDS011;27178;49.460;10.850;2023-06-14T06:02:42;3.15;;;2.85;;
41436;SDS011;27178;49.460;10.850;2023-06-14T06:05:11;3.30;;;3.00;;
41436;SDS011;27178;49.460;10.850;2023-06-14T06:07:41;5.60;;;3.28;;
41436;SDS011;27178;49.460;10.850;2023-06-14T06:10:10;3.25;;;2.95;;
41436;SDS011;27178;49.460;10.850;2023-06-14T06:12:40;4.82;;;3.30;;
41436;SDS011;27178;49.460;10.850;2023-06-14T06:15:09;3.63;;;3.33;;
41436;SDS011;27178;49.460;10.850;2023-06-14T06:17:39;3.22;;;2.90;;
41436;SDS011;27178;49.460;10.850;2023-06-14T06:20:22;4.05;;;3.42;;
41436;SDS011;27178;49.460;10.850;2023-06-14T06:22:55;5.20;;;3.33;;
41436;SDS011;27178;49.460;10.850;2023-06-14T06:25:24;5.43;;;3.25;;
41436;SDS011;27178;49.460;10.850;2023-06-14T06:27:53;4.68;;;3.38;;
41436;SDS011;27178;49.460;10.850;2023-06-14T06:30:22;3.50;;;3.00;;
41436;SDS011;27178;49.460;10.850;2023-06-14T06:32:51;3.08;;;2.75;;
41436;SDS011;27178;49.460;10.850;2023-06-14T06:35:20;3.47;;;3.17;;
41436;SDS011;27178;49.460;10.850;2023-06-14T06:37:50;3.85;;;3.55;;
41436;SDS011;27178;49.460;10.850;2023-06-14T06:40:18;3.45;;;2.97;;
41436;SDS011;27178;49.460;10.850;2023-06-14T06:42:47;3.40;;;3.08;;
41436;SDS011;27178;49.460;10.850;2023-06-14T06:45:16;3.25;;;2.95;;
41436;SDS011;27178;49.460;10.850;2023-06-14T06:47:45;3.38;;;2.85;;
41436;SDS011;27178;49.460;10.850;2023-06-14T06:50:13;4.03;;;3.30;;
41436;SDS011;27178;49.460;10.850;2023-06-14T06:52:42;5.82;;;3.10;;
41436;SDS011;27178;49.460;10.850;2023-06-14T06:55:13;3.30;;;3.00;;
41436;SDS011;27178;49.460;10.850;2023-06-14T06:57:42;3.20;;;2.90;;
41436;SDS011;27178;49.460;10.850;2023-06-14T07:00:10;4.15;;;3.08;;
41436;SDS011;27178;49.460;10.850;2023-06-14T07:02:40;3.60;;;3.30;;
41436;SDS011;27178;49.460;10.850;2023-06-14T07:05:08;4.10;;;2.85;;
41436;SDS011;27178;49.460;10.850;2023-06-14T07:07:37;3.78;;;2.95;;
41436;SDS011;27178;49.460;10.850;2023-06-14T07:10:05;3.50;;;3.10;;
41436;SDS011;27178;49.460;10.850;2023-06-14T07:12:37;3.60;;;3.03;;
41436;SDS011;27178;49.460;10.850;2023-06-14T07:15:06;4.20;;;3.10;;
41436;SDS011;27178;49.460;10.850;2023-06-14T07:17:35;3.30;;;3.03;;
41436;SDS011;27178;49.460;10.850;2023-06-14T07:20:04;3.45;;;3.15;;
41436;SDS011;27178;49.460;10.850;2023-06-14T07:22:40;3.63;;;3.08;;
41436;SDS011;27178;49.460;10.850;2023-06-14T07:25:09;3.00;;;2.67;;
41436;SDS011;27178;49.460;10.850;2023-06-14T07:27:42;3.30;;;2.72;;
41436;SDS011;27178;49.460;10.850;2023-06-14T07:30:11;3.92;;;3.17;;
41436;SDS011;27178;49.460;10.850;2023-06-14T07:32:39;4.78;;;3.15;;
41436;SDS011;27178;49.460;10.850;2023-06-14T07:35:08;5.95;;;3.00;;
41436;SDS011;27178;49.460;10.850;2023-06-14T07:37:36;5.35;;;2.78;;
41436;SDS011;27178;49.460;10.850;2023-06-14T07:40:05;3.20;;;2.78;;
41436;SDS011;27178;49.460;10.850;2023-06-14T07:42:34;4.43;;;2.70;;
41436;SDS011;27178;49.460;10.850;2023-06-14T07:45:04;4.38;;;2.97;;
41436;SDS011;27178;49.460;10.850;2023-06-14T07:47:33;2.80;;;2.60;;
41436;SDS011;27178;49.460;10.850;2023-06-14T07:50:02;3.00;;;2.80;;
41436;SDS011;27178;49.460;10.850;2023-06-14T07:52:30;6.43;;;3.10;;
41436;SDS011;27178;49.460;10.850;2023-06-14T07:54:59;4.95;;;3.63;;
41436;SDS011;27178;49.460;10.850;2023-06-14T07:57:28;3.42;;;2.95;;
41436;SDS011;27178;49.460;10.850;2023-06-14T07:59:56;3.85;;;2.83;;
41436;SDS011;27178;49.460;10.850;2023-06-14T08:02:26;3.80;;;2.97;;
41436;SDS011;27178;49.460;10.850;2023-06-14T08:04:55;3.13;;;2.88;;
41436;SDS011;27178;49.460;10.850;2023-06-14T08:07:23;3.08;;;2.75;;
41436;SDS011;27178;49.460;10.850;2023-06-14T08:09:52;3.70;;;3.00;;
41436;SDS011;27178;49.460;10.850;2023-06-14T08:12:20;4.15;;;2.78;;
41436;SDS011;27178;49.460;10.850;2023-06-14T08:14:49;3.05;;;2.70;;
41436;SDS011;27178;49.460;10.850;2023-06-14T08:17:39;3.00;;;2.70;;
41436;SDS011;27178;49.460;10.850;2023-06-14T08:20:07;3.50;;;3.20;;
41436;SDS011;27178;49.460;10.850;2023-06-14T08:22:37;2.88;;;2.50;;
41436;SDS011;27178;49.460;10.850;2023-06-14T08:25:09;3.15;;;2.65;;
41436;SDS011;27178;49.460;10.850;2023-06-14T08:27:39;3.15;;;2.63;;
41436;SDS011;27178;49.460;10.850;2023-06-14T08:30:08;3.58;;;2.55;;
41436;SDS011;27178;49.460;10.850;2023-06-14T08:32:38;3.03;;;2.45;;
41436;SDS011;27178;49.460;10.850;2023-06-14T08:35:07;2.80;;;2.60;;
41436;SDS011;27178;49.460;10.850;2023-06-14T08:37:37;2.70;;;2.50;;
41436;SDS011;27178;49.460;10.850;2023-06-14T08:40:08;4.90;;;2.33;;
41436;SDS011;27178;49.460;10.850;2023-06-14T08:42:47;3.22;;;2.47;;
41436;SDS011;27178;49.460;10.850;2023-06-14T08:45:19;2.65;;;2.45;;
41436;SDS011;27178;49.460;10.850;2023-06-14T08:47:53;2.72;;;2.53;;
41436;SDS011;27178;49.460;10.850;2023-06-14T08:50:25;2.50;;;2.30;;
41436;SDS011;27178;49.460;10.850;2023-06-14T08:52:58;3.42;;;2.45;;
41436;SDS011;27178;49.460;10.850;2023-06-14T08:55:31;2.72;;;2.53;;
41436;SDS011;27178;49.460;10.850;2023-06-14T08:58:03;2.85;;;2.35;;
41436;SDS011;27178;49.460;10.850;2023-06-14T09:00:32;2.80;;;2.60;;
41436;SDS011;27178;49.460;10.850;2023-06-14T09:03:02;2.67;;;2.47;;
41436;SDS011;27178;49.460;10.850;2023-06-14T09:05:32;5.25;;;2.35;;
41436;SDS011;27178;49.460;10.850;2023-06-14T09:08:00;5.05;;;2.70;;
41436;SDS011;27178;49.460;10.850;2023-06-14T09:10:32;4.25;;;3.13;;
41436;SDS011;27178;49.460;10.850;2023-06-14T09:13:01;4.50;;;2.78;;
41436;SDS011;27178;49.460;10.850;2023-06-14T09:15:30;3.35;;;2.53;;
41436;SDS011;27178;49.460;10.850;2023-06-14T09:18:00;3.17;;;2.60;;
41436;SDS011;27178;49.460;10.850;2023-06-14T09:20:32;5.00;;;2.40;;
41436;SDS011;27178;49.460;10.850;2023-06-14T09:23:01;2.97;;;2.67;;
41436;SDS011;27178;49.460;10.850;2023-06-14T09:25:36;2.63;;;2.35;;
41436;SDS011;27178;49.460;10.850;2023-06-14T09:28:12;4.15;;;2.63;;
41436;SDS011;27178;49.460;10.850;2023-06-14T09:30:40;3.30;;;2.67;;
41436;SDS011;27178;49.460;10.850;2023-06-14T09:33:09;3.08;;;2.60;;
41436;SDS011;27178;49.460;10.850;2023-06-14T09:35:39;3.00;;;2.65;;
41436;SDS011;27178;49.460;10.850;2023-06-14T09:38:07;3.00;;;2.70;;
41436;SDS011;27178;49.460;10.850;2023-06-14T09:40:36;4.55;;;3.08;;
41436;SDS011;27178;49.460;10.850;2023-06-14T09:43:05;3.65;;;2.70;;
41436;SDS011;27178;49.460;10.850;2023-06-14T09:45:36;3.08;;;2.83;;
41436;SDS011;27178;49.460;10.850;2023-06-14T09:48:07;3.00;;;2.65;;
41436;SDS011;27178;49.460;10.850;2023-06-14T09:50:38;3.25;;;3.05;;
41436;SDS011;27178;49.460;10.850;2023-06-14T09:53:07;4.28;;;2.95;;
41436;SDS011;27178;49.460;10.850;2023-06-14T09:55:48;5.05;;;2.97;;
41436;SDS011;27178;49.460;10.850;2023-06-14T09:58:17;5.90;;;2.92;;
41436;SDS011;27178;49.460;10.850;2023-06-14T10:00:50;6.60;;;3.05;;
41436;SDS011;27178;49.460;10.850;2023-06-14T10:03:24;3.40;;;3.10;;
41436;SDS011;27178;49.460;10.850;2023-06-14T10:06:09;5.15;;;2.88;;
41436;SDS011;27178;49.460;10.850;2023-06-14T10:08:38;3.08;;;2.85;;
41436;SDS011;27178;49.460;10.850;2023-06-14T10:11:09;4.40;;;2.83;;
41436;SDS011;27178;49.460;10.850;2023-06-14T10:13:38;2.83;;;2.58;;
41436;SDS011;27178;49.460;10.850;2023-06-14T10:16:09;2.83;;;2.47;;
41436;SDS011;27178;49.460;10.850;2023-06-14T10:18:45;4.20;;;3.05;;
41436;SDS011;27178;49.460;10.850;2023-06-14T10:21:20;4.40;;;3.05;;
41436;SDS011;27178;49.460;10.850;2023-06-14T10:23:55;5.18;;;2.72;;
41436;SDS011;27178;49.460;10.850;2023-06-14T10:26:27;3.47;;;2.80;;
41436;SDS011;27178;49.460;10.850;2023-06-14T10:28:56;4.47;;;2.78;;
41436;SDS011;27178;49.460;10.850;2023-06-14T10:31:42;5.10;;;3.05;;
41436;SDS011;27178;49.460;10.850;2023-06-14T10:34:20;3.17;;;2.65;;
41436;SDS011;27178;49.460;10.850;2023-06-14T10:37:00;4.03;;;2.75;;
41436;SDS011;27178;49.460;10.850;2023-06-14T10:39:30;3.67;;;2.40;;
41436;SDS011;27178;49.460;10.850;2023-06-14T10:42:01;2.75;;;2.55;;
41436;SDS011;27178;49.460;10.850;2023-06-14T10:44:38;3.63;;;2.80;;
41436;SDS011;27178;49.460;10.850;2023-06-14T10:47:20;2.67;;;2.47;;
41436;SDS011;27178;49.460;10.850;2023-06-14T10:49:52;2.58;;;2.38;;
41436;SDS011;27178;49.460;10.850;2023-06-14T10:52:26;3.35;;;2.50;;
41436;SDS011;27178;49.460;10.850;2023-06-14T10:57:43;3.28;;;2.75;;
41436;SDS011;27178;49.460;10.850;2023-06-14T11:00:18;2.72;;;2.53;;
41436;SDS011;27178;49.460;10.850;2023-06-14T11:06:14;2.88;;;2.67;;
41436;SDS011;27178;49.460;10.850;2023-06-14T11:11:48;4.85;;;2.63;;
41436;SDS011;27178;49.460;10.850;2023-06-14T11:14:18;3.22;;;2.50;;
41436;SDS011;27178;49.460;10.850;2023-06-14T11:16:48;3.00;;;2.38;;
41436;SDS011;27178;49.460;10.850;2023-06-14T11:19:16;4.43;;;2.63;;
41436;SDS011;27178;49.460;10.850;2023-06-14T11:21:48;3.25;;;2.38;;
41436;SDS011;27178;49.460;10.850;2023-06-14T11:24:16;2.25;;;2.13;;
41436;SDS011;27178;49.460;10.850;2023-06-14T11:26:46;2.83;;;2.63;;
41436;SDS011;27178;49.460;10.850;2023-06-14T11:29:15;3.83;;;2.60;;
41436;SDS011;27178;49.460;10.850;2023-06-14T11:31:44;2.70;;;2.50;;
41436;SDS011;27178;49.460;10.850;2023-06-14T11:34:13;4.63;;;2.58;;
41436;SDS011;27178;49.460;10.850;2023-06-14T11:36:42;2.97;;;2.78;;
41436;SDS011;27178;49.460;10.850;2023-06-14T11:39:13;2.83;;;2.50;;
41436;SDS011;27178;49.460;10.850;2023-06-14T11:41:43;3.00;;;2.80;;
41436;SDS011;27178;49.460;10.850;2023-06-14T11:44:12;3.22;;;2.40;;
41436;SDS011;27178;49.460;10.850;2023-06-14T11:46:40;2.85;;;2.63;;
41436;SDS011;27178;49.460;10.850;2023-06-14T11:49:08;2.55;;;2.35;;
41436;SDS011;27178;49.460;10.850;2023-06-14T11:51:37;2.58;;;2.38;;
41436;SDS011;27178;49.460;10.850;2023-06-14T11:54:05;3.40;;;3.00;;
41436;SDS011;27178;49.460;10.850;2023-06-14T11:56:37;2.53;;;2.17;;
41436;SDS011;27178;49.460;10.850;2023-06-14T11:59:05;2.60;;;2.40;;
41436;SDS011;27178;49.460;10.850;2023-06-14T12:01:37;2.53;;;2.33;;
41436;SDS011;27178;49.460;10.850;2023-06-14T12:04:06;2.45;;;2.20;;
41436;SDS011;27178;49.460;10.850;2023-06-14T12:06:35;2.75;;;2.47;;
41436;SDS011;27178;49.460;10.850;2023-06-14T12:09:07;2.40;;;2.20;;
41436;SDS011;27178;49.460;10.850;2023-06-14T12:11:41;2.65;;;2.33;;
41436;SDS011;27178;49.460;10.850;2023-06-14T12:14:09;3.80;;;2.35;;
41436;SDS011;27178;49.460;10.850;2023-06-14T12:16:38;4.40;;;2.63;;
41436;SDS011;27178;49.460;10.850;2023-06-14T12:19:08;2.60;;;2.20;;
41436;SDS011;27178;49.460;10.850;2023-06-14T12:21:39;2.63;;;2.42;;
41436;SDS011;27178;49.460;10.850;2023-06-14T12:24:08;2.47;;;2.28;;
41436;SDS011;27178;49.460;10.850;2023-06-14T12:26:39;3.15;;;2.40;;
41436;SDS011;27178;49.460;10.850;2023-06-14T12:29:09;3.83;;;2.75;;
41436;SDS011;27178;49.460;10.850;2023-06-14T12:31:39;3.20;;;2.33;;
41436;SDS011;27178;49.460;10.850;2023-06-14T12:34:08;2.60;;;2.30;;
41436;SDS011;27178;49.460;10.850;2023-06-14T12:36:37;2.63;;;2.30;;
41436;SDS011;27178;49.460;10.850;2023-06-14T12:39:11;3.08;;;2.45;;
41436;SDS011;27178;49.460;10.850;2023-06-14T12:41:41;3.97;;;2.60;;
41436;SDS011;27178;49.460;10.850;2023-06-14T12:44:10;2.35;;;2.15;;
41436;SDS011;27178;49.460;10.850;2023-06-14T12:46:39;2.33;;;2.13;;
41436;SDS011;27178;49.460;10.850;2023-06-14T12:49:08;5.10;;;2.30;;
41436;SDS011;27178;49.460;10.850;2023-06-14T12:51:38;3.95;;;2.60;;
41436;SDS011;27178;49.460;10.850;2023-06-14T12:54:07;2.10;;;1.90;;
41436;SDS011;27178;49.460;10.850;2023-06-14T12:56:35;2.42;;;2.22;;
41436;SDS011;27178;49.460;10.850;2023-06-14T12:59:05;3.10;;;2.45;;
41436;SDS011;27178;49.460;10.850;2023-06-14T13:01:34;2.58;;;2.38;;
41436;SDS011;27178;49.460;10.850;2023-06-14T13:04:02;3.85;;;2.70;;
41436;SDS011;27178;49.460;10.850;2023-06-14T13:06:31;2.35;;;2.15;;
41436;SDS011;27178;49.460;10.850;2023-06-14T13:09:00;3.30;;;2.90;;
41436;SDS011;27178;49.460;10.850;2023-06-14T13:11:28;3.92;;;2.65;;
41436;SDS011;27178;49.460;10.850;2023-06-14T13:13:56;3.35;;;2.70;;
41436;SDS011;27178;49.460;10.850;2023-06-14T13:16:32;2.60;;;2.40;;
41436;SDS011;27178;49.460;10.850;2023-06-14T13:19:02;4.65;;;2.50;;
41436;SDS011;27178;49.460;10.850;2023-06-14T13:21:31;3.55;;;2.20;;
41436;SDS011;27178;49.460;10.850;2023-06-14T13:23:59;2.30;;;2.17;;
41436;SDS011;27178;49.460;10.850;2023-06-14T13:26:28;3.28;;;2.20;;
41436;SDS011;27178;49.460;10.850;2023-06-14T13:28:57;4.53;;;2.10;;
41436;SDS011;27178;49.460;10.850;2023-06-14T13:31:25;2.75;;;2.20;;
41436;SDS011;27178;49.460;10.850;2023-06-14T13:33:55;5.63;;;2.20;;
41436;SDS011;27178;49.460;10.850;2023-06-14T13:36:23;3.90;;;2.50;;
41436;SDS011;27178;49.460;10.850;2023-06-14T13:38:52;4.13;;;3.05;;
41436;SDS011;27178;49.460;10.850;2023-06-14T13:41:21;14.32;;;13.13;;
41436;SDS011;27178;49.460;10.850;2023-06-14T13:43:50;8.35;;;7.57;;
41436;SDS011;27178;49.460;10.850;2023-06-14T13:46:21;5.20;;;4.70;;
41436;SDS011;27178;49.460;10.850;2023-06-14T13:48:50;3.47;;;2.75;;
41436;SDS011;27178;49.460;10.850;2023-06-14T13:51:20;3.20;;;2.92;;
41436;SDS011;27178;49.460;10.850;2023-06-14T13:53:48;2.95;;;2.60;;
41436;SDS011;27178;49.460;10.850;2023-06-14T13:56:17;2.55;;;2.35;;
41436;SDS011;27178;49.460;10.850;2023-06-14T13:58:46;2.25;;;2.05;;
41436;SDS011;27178;49.460;10.850;2023-06-14T14:01:14;3.45;;;2.30;;
41436;SDS011;27178;49.460;10.850;2023-06-14T14:03:44;2.50;;;2.30;;
41436;SDS011;27178;49.460;10.850;2023-06-14T14:06:13;2.63;;;2.35;;
41436;SDS011;27178;49.460;10.850;2023-06-14T14:08:43;3.00;;;2.10;;
41436;SDS011;27178;49.460;10.850;2023-06-14T14:11:11;3.25;;;2.05;;
41436;SDS011;27178;49.460;10.850;2023-06-14T14:13:40;2.30;;;2.13;;
41436;SDS011;27178;49.460;10.850;2023-06-14T14:16:09;4.47;;;2.03;;
41436;SDS011;27178;49.460;10.850;2023-06-14T14:18:37;4.55;;;2.10;;
41436;SDS011;27178;49.460;10.850;2023-06-14T14:21:06;2.22;;;2.00;;
41436;SDS011;27178;49.460;10.850;2023-06-14T14:23:34;2.85;;;2.65;;
41436;SDS011;27178;49.460;10.850;2023-06-14T14:26:08;3.92;;;2.60;;
41436;SDS011;27178;49.460;10.850;2023-06-14T14:28:36;3.95;;;2.40;;
41436;SDS011;27178;49.460;10.850;2023-06-14T14:31:05;3.00;;;2.28;;
41436;SDS011;27178;49.460;10.850;2023-06-14T14:33:33;2.67;;;2.13;;
41436;SDS011;27178;49.460;10.850;2023-06-14T14:36:02;2.85;;;2.28;;
41436;SDS011;27178;49.460;10.850;2023-06-14T14:38:32;2.20;;;2.08;;
41436;SDS011;27178;49.460;10.850;2023-06-14T14:41:01;6.32;;;2.50;;
41436;SDS011;27178;49.460;10.850;2023-06-14T14:43:30;2.63;;;2.20;;
41436;SDS011;27178;49.460;10.850;2023-06-14T14:45:59;2.30;;;2.10;;
41436;SDS011;27178;49.460;10.850;2023-06-14T14:48:28;2.50;;;2.30;;
41436;SDS011;27178;49.460;10.850;2023-06-14T14:50:56;2.83;;;2.40;;
41436;SDS011;27178;49.460;10.850;2023-06-14T14:53:24;2.45;;;2.25;;
41436;SDS011;27178;49.460;10.850;2023-06-14T14:55:53;3.70;;;2.20;;
41436;SDS011;27178;49.460;10.850;2023-06-14T14:58:22;2.53;;;2.15;;